Terminal Aerodrome Forecast
Issued by NWS

Home | Current Version | Previous Version | Text Only | Print | Product List | Glossary On
Versions: 1 2 3 4 5 6 7 8 9 10 11 12
000
FTUS45 KABQ 231732
TAFGUP
TAF
KGUP 231732Z 2318/2418 21015G25KT P6SM -SHRA BKN035
      TEMPO 2318/2320 -TSRA OVC025CB
     FM232000 23020G30KT P6SM VCSH BKN080
     FM240000 23013KT P6SM SCT080
     FM240600 21004KT P6SM SKC
     FM241600 24010KT P6SM FEW100=

USA.gov is the U.S. government's official web portal to all federal, state and local government web resources and services.